sensor_id;sensor_type;location;lat;lon;timestamp;pressure;altitude;pressure_sealevel;temperature;humidity
79527;BME280;68974;47.754;-3.364;2024-03-29T00:00:36;98488.47;;;8.50;81.68
79527;BME280;68974;47.754;-3.364;2024-03-29T00:03:01;98478.84;;;8.44;81.98
79527;BME280;68974;47.754;-3.364;2024-03-29T00:05:27;98486.56;;;8.42;81.59
79527;BME280;68974;47.754;-3.364;2024-03-29T00:07:52;98480.09;;;8.55;81.24
79527;BME280;68974;47.754;-3.364;2024-03-29T00:10:18;98476.25;;;8.56;80.98
79527;BME280;68974;47.754;-3.364;2024-03-29T00:12:43;98479.63;;;8.70;80.73
79527;BME280;68974;47.754;-3.364;2024-03-29T00:15:09;98457.56;;;8.67;81.16
79527;BME280;68974;47.754;-3.364;2024-03-29T00:17:35;98461.78;;;8.64;81.39
79527;BME280;68974;47.754;-3.364;2024-03-29T00:20:01;98464.34;;;8.69;81.66
79527;BME280;68974;47.754;-3.364;2024-03-29T00:22:27;98463.69;;;8.73;82.02
79527;BME280;68974;47.754;-3.364;2024-03-29T00:24:53;98449.50;;;8.70;82.33
79527;BME280;68974;47.754;-3.364;2024-03-29T00:27:19;98481.06;;;8.77;82.71
79527;BME280;68974;47.754;-3.364;2024-03-29T00:29:44;98478.63;;;8.92;82.78
79527;BME280;68974;47.754;-3.364;2024-03-29T00:32:12;98493.13;;;8.93;82.94
79527;BME280;68974;47.754;-3.364;2024-03-29T00:34:37;98465.75;;;8.93;83.27
79527;BME280;68974;47.754;-3.364;2024-03-29T00:37:03;98485.72;;;8.93;83.76
79527;BME280;68974;47.754;-3.364;2024-03-29T00:39:29;98483.28;;;9.00;84.09
79527;BME280;68974;47.754;-3.364;2024-03-29T00:41:54;98468.78;;;9.00;84.24
79527;BME280;68974;47.754;-3.364;2024-03-29T00:44:20;98470.72;;;9.08;84.38
79527;BME280;68974;47.754;-3.364;2024-03-29T00:46:45;98454.28;;;9.08;84.93
79527;BME280;68974;47.754;-3.364;2024-03-29T00:49:11;98469.09;;;9.07;85.36
79527;BME280;68974;47.754;-3.364;2024-03-29T00:51:36;98455.88;;;9.09;85.32
79527;BME280;68974;47.754;-3.364;2024-03-29T00:54:02;98450.75;;;9.07;85.61
79527;BME280;68974;47.754;-3.364;2024-03-29T00:56:27;98464.25;;;9.12;85.59
79527;BME280;68974;47.754;-3.364;2024-03-29T00:58:53;98457.31;;;9.15;85.49
79527;BME280;68974;47.754;-3.364;2024-03-29T01:01:18;98463.09;;;9.22;85.66
79527;BME280;68974;47.754;-3.364;2024-03-29T01:03:43;98467.72;;;9.30;85.12
79527;BME280;68974;47.754;-3.364;2024-03-29T01:06:09;98459.34;;;9.35;85.08
79527;BME280;68974;47.754;-3.364;2024-03-29T01:08:34;98475.72;;;9.52;83.85
79527;BME280;68974;47.754;-3.364;2024-03-29T01:11:00;98462.47;;;9.54;83.49
79527;BME280;68974;47.754;-3.364;2024-03-29T01:13:25;98461.72;;;9.45;82.27
79527;BME280;68974;47.754;-3.364;2024-03-29T01:15:51;98467.00;;;9.50;82.32
79527;BME280;68974;47.754;-3.364;2024-03-29T01:18:17;98472.50;;;9.50;81.92
79527;BME280;68974;47.754;-3.364;2024-03-29T01:20:42;98471.81;;;9.53;81.80
79527;BME280;68974;47.754;-3.364;2024-03-29T01:23:08;98482.91;;;9.66;80.62
79527;BME280;68974;47.754;-3.364;2024-03-29T01:25:34;98461.78;;;9.66;80.40
79527;BME280;68974;47.754;-3.364;2024-03-29T01:27:59;98479.22;;;9.62;80.16
79527;BME280;68974;47.754;-3.364;2024-03-29T01:30:24;98481.13;;;9.70;79.74
79527;BME280;68974;47.754;-3.364;2024-03-29T01:32:52;98474.50;;;9.71;79.87
79527;BME280;68974;47.754;-3.364;2024-03-29T01:35:17;98479.69;;;9.64;79.77
79527;BME280;68974;47.754;-3.364;2024-03-29T01:37:43;98493.88;;;9.66;79.44
79527;BME280;68974;47.754;-3.364;2024-03-29T01:40:08;98488.03;;;9.76;79.18
79527;BME280;68974;47.754;-3.364;2024-03-29T01:42:35;98488.34;;;9.74;79.21
79527;BME280;68974;47.754;-3.364;2024-03-29T01:45:01;98484.53;;;9.67;79.81
79527;BME280;68974;47.754;-3.364;2024-03-29T01:47:26;98503.72;;;9.67;79.84
79527;BME280;68974;47.754;-3.364;2024-03-29T01:49:52;98488.38;;;9.66;79.72
79527;BME280;68974;47.754;-3.364;2024-03-29T01:52:19;98486.78;;;9.65;79.26
79527;BME280;68974;47.754;-3.364;2024-03-29T01:54:45;98489.53;;;9.65;79.38
79527;BME280;68974;47.754;-3.364;2024-03-29T01:57:11;98475.34;;;9.63;79.28
79527;BME280;68974;47.754;-3.364;2024-03-29T01:59:38;98501.16;;;9.62;79.41
79527;BME280;68974;47.754;-3.364;2024-03-29T02:02:05;98482.97;;;9.57;79.48
79527;BME280;68974;47.754;-3.364;2024-03-29T02:04:31;98473.25;;;9.60;79.42
79527;BME280;68974;47.754;-3.364;2024-03-29T02:06:56;98467.78;;;9.60;79.61
79527;BME280;68974;47.754;-3.364;2024-03-29T02:09:22;98472.00;;;9.57;79.48
79527;BME280;68974;47.754;-3.364;2024-03-29T02:11:48;98470.25;;;9.52;79.26
79527;BME280;68974;47.754;-3.364;2024-03-29T02:14:13;98464.56;;;9.57;79.94
79527;BME280;68974;47.754;-3.364;2024-03-29T02:16:39;98448.22;;;9.70;79.32
79527;BME280;68974;47.754;-3.364;2024-03-29T02:19:04;98469.47;;;9.73;79.49
79527;BME280;68974;47.754;-3.364;2024-03-29T02:21:31;98465.97;;;9.64;79.58
79527;BME280;68974;47.754;-3.364;2024-03-29T02:24:06;98474.97;;;9.73;78.35
79527;BME280;68974;47.754;-3.364;2024-03-29T02:26:32;98479.50;;;9.69;77.49
79527;BME280;68974;47.754;-3.364;2024-03-29T02:29:01;98478.09;;;9.63;77.60
79527;BME280;68974;47.754;-3.364;2024-03-29T02:31:27;98500.03;;;9.63;77.36
79527;BME280;68974;47.754;-3.364;2024-03-29T02:33:52;98501.16;;;9.62;77.36
79527;BME280;68974;47.754;-3.364;2024-03-29T02:36:18;98500.47;;;9.65;77.46
79527;BME280;68974;47.754;-3.364;2024-03-29T02:38:45;98502.25;;;9.69;77.32
79527;BME280;68974;47.754;-3.364;2024-03-29T02:41:10;98501.91;;;9.71;76.68
79527;BME280;68974;47.754;-3.364;2024-03-29T02:43:35;98499.19;;;9.71;76.85
79527;BME280;68974;47.754;-3.364;2024-03-29T02:46:02;98495.56;;;9.79;76.65
79527;BME280;68974;47.754;-3.364;2024-03-29T02:48:28;98486.91;;;9.77;76.37
79527;BME280;68974;47.754;-3.364;2024-03-29T02:50:53;98490.75;;;9.76;76.23
79527;BME280;68974;47.754;-3.364;2024-03-29T02:53:19;98491.72;;;9.80;75.93
79527;BME280;68974;47.754;-3.364;2024-03-29T02:55:45;98506.66;;;9.91;75.37
79527;BME280;68974;47.754;-3.364;2024-03-29T02:58:10;98507.47;;;9.91;75.08
79527;BME280;68974;47.754;-3.364;2024-03-29T03:00:36;98511.66;;;9.89;74.61
79527;BME280;68974;47.754;-3.364;2024-03-29T03:03:01;98511.19;;;9.87;74.50
79527;BME280;68974;47.754;-3.364;2024-03-29T03:05:27;98507.22;;;9.76;74.46
79527;BME280;68974;47.754;-3.364;2024-03-29T03:07:52;98507.22;;;9.76;74.54
79527;BME280;68974;47.754;-3.364;2024-03-29T03:10:45;98504.25;;;9.89;73.63
79527;BME280;68974;47.754;-3.364;2024-03-29T03:13:28;98506.78;;;9.94;73.73
79527;BME280;68974;47.754;-3.364;2024-03-29T03:15:54;98505.38;;;9.88;74.16
79527;BME280;68974;47.754;-3.364;2024-03-29T03:18:20;98488.66;;;9.81;74.26
79527;BME280;68974;47.754;-3.364;2024-03-29T03:20:56;98493.41;;;9.93;74.20
79527;BME280;68974;47.754;-3.364;2024-03-29T03:23:25;98485.84;;;9.90;74.32
79527;BME280;68974;47.754;-3.364;2024-03-29T03:25:55;98481.31;;;9.94;74.83
79527;BME280;68974;47.754;-3.364;2024-03-29T03:28:21;98489.06;;;9.92;75.15
79527;BME280;68974;47.754;-3.364;2024-03-29T03:30:50;98484.72;;;9.91;75.15
79527;BME280;68974;47.754;-3.364;2024-03-29T03:33:16;98477.56;;;9.98;74.49
79527;BME280;68974;47.754;-3.364;2024-03-29T03:35:42;98478.38;;;9.99;73.99
79527;BME280;68974;47.754;-3.364;2024-03-29T03:38:08;98472.88;;;9.99;75.05
79527;BME280;68974;47.754;-3.364;2024-03-29T03:40:35;98465.53;;;10.12;74.49
79527;BME280;68974;47.754;-3.364;2024-03-29T03:43:01;98461.53;;;10.09;74.55
79527;BME280;68974;47.754;-3.364;2024-03-29T03:45:27;98467.16;;;10.13;75.18
79527;BME280;68974;47.754;-3.364;2024-03-29T03:47:53;98470.88;;;10.08;76.03
79527;BME280;68974;47.754;-3.364;2024-03-29T03:50:19;98478.00;;;10.09;76.19
79527;BME280;68974;47.754;-3.364;2024-03-29T03:52:44;98474.91;;;10.11;76.47
79527;BME280;68974;47.754;-3.364;2024-03-29T03:55:10;98475.72;;;10.11;76.79
79527;BME280;68974;47.754;-3.364;2024-03-29T03:57:35;98471.56;;;10.05;77.35
79527;BME280;68974;47.754;-3.364;2024-03-29T04:00:01;98484.25;;;10.18;77.46
79527;BME280;68974;47.754;-3.364;2024-03-29T04:02:28;98480.69;;;10.18;78.11
79527;BME280;68974;47.754;-3.364;2024-03-29T04:04:54;98504.59;;;10.17;79.54
79527;BME280;68974;47.754;-3.364;2024-03-29T04:07:19;98491.03;;;10.12;79.70
79527;BME280;68974;47.754;-3.364;2024-03-29T04:09:45;98490.97;;;10.00;79.56
79527;BME280;68974;47.754;-3.364;2024-03-29T04:12:11;98493.31;;;9.81;80.01
79527;BME280;68974;47.754;-3.364;2024-03-29T04:14:36;98479.44;;;9.86;78.53
79527;BME280;68974;47.754;-3.364;2024-03-29T04:17:02;98483.28;;;9.85;77.46
79527;BME280;68974;47.754;-3.364;2024-03-29T04:19:27;98483.81;;;9.78;77.92
79527;BME280;68974;47.754;-3.364;2024-03-29T04:21:53;98474.69;;;9.66;78.91
79527;BME280;68974;47.754;-3.364;2024-03-29T04:24:18;98473.22;;;9.68;78.72
79527;BME280;68974;47.754;-3.364;2024-03-29T04:26:44;98476.75;;;9.69;78.41
79527;BME280;68974;47.754;-3.364;2024-03-29T04:29:10;98483.38;;;9.68;78.18
79527;BME280;68974;47.754;-3.364;2024-03-29T04:31:36;98475.13;;;9.76;79.66
79527;BME280;68974;47.754;-3.364;2024-03-29T04:34:01;98478.56;;;9.65;78.17
79527;BME280;68974;47.754;-3.364;2024-03-29T04:36:27;98489.19;;;9.66;77.69
79527;BME280;68974;47.754;-3.364;2024-03-29T04:38:52;98479.22;;;9.62;77.19
79527;BME280;68974;47.754;-3.364;2024-03-29T04:41:18;98487.13;;;9.54;76.40
79527;BME280;68974;47.754;-3.364;2024-03-29T04:43:44;98483.31;;;9.47;75.78
79527;BME280;68974;47.754;-3.364;2024-03-29T04:46:12;98484.13;;;9.47;75.51
79527;BME280;68974;47.754;-3.364;2024-03-29T04:48:39;98482.50;;;9.46;76.04
79527;BME280;68974;47.754;-3.364;2024-03-29T04:51:05;98492.81;;;9.49;75.87
79527;BME280;68974;47.754;-3.364;2024-03-29T04:53:31;98482.19;;;9.39;75.62
79527;BME280;68974;47.754;-3.364;2024-03-29T04:55:57;98492.06;;;9.32;75.96
79527;BME280;68974;47.754;-3.364;2024-03-29T04:58:24;98489.97;;;9.37;75.39
79527;BME280;68974;47.754;-3.364;2024-03-29T05:00:51;98499.81;;;9.30;75.22
79527;BME280;68974;47.754;-3.364;2024-03-29T05:03:17;98486.59;;;9.32;75.52
79527;BME280;68974;47.754;-3.364;2024-03-29T05:05:44;98506.25;;;9.25;75.79
79527;BME280;68974;47.754;-3.364;2024-03-29T05:08:09;98497.22;;;9.33;76.43
79527;BME280;68974;47.754;-3.364;2024-03-29T05:10:35;98496.25;;;9.29;76.49
79527;BME280;68974;47.754;-3.364;2024-03-29T05:13:00;98501.72;;;9.29;76.64
79527;BME280;68974;47.754;-3.364;2024-03-29T05:15:28;98485.78;;;9.31;77.07
79527;BME280;68974;47.754;-3.364;2024-03-29T05:17:54;98489.16;;;9.37;77.33
79527;BME280;68974;47.754;-3.364;2024-03-29T05:20:19;98476.88;;;9.43;77.29
79527;BME280;68974;47.754;-3.364;2024-03-29T05:22:45;98477.03;;;9.46;77.88
79527;BME280;68974;47.754;-3.364;2024-03-29T05:25:10;98483.63;;;9.45;77.52
79527;BME280;68974;47.754;-3.364;2024-03-29T05:27:36;98485.34;;;9.58;77.63
79527;BME280;68974;47.754;-3.364;2024-03-29T05:30:02;98485.66;;;9.66;76.52
79527;BME280;68974;47.754;-3.364;2024-03-29T05:32:29;98512.34;;;9.86;75.47
79527;BME280;68974;47.754;-3.364;2024-03-29T05:34:55;98517.75;;;9.94;76.46
79527;BME280;68974;47.754;-3.364;2024-03-29T05:37:21;98521.00;;;9.88;76.53
79527;BME280;68974;47.754;-3.364;2024-03-29T05:39:48;98520.22;;;9.49;76.98
79527;BME280;68974;47.754;-3.364;2024-03-29T05:42:13;98523.34;;;9.31;78.90
79527;BME280;68974;47.754;-3.364;2024-03-29T05:44:39;98529.66;;;9.14;80.09
79527;BME280;68974;47.754;-3.364;2024-03-29T05:47:04;98510.66;;;9.00;79.90
79527;BME280;68974;47.754;-3.364;2024-03-29T05:49:31;98514.53;;;8.91;80.31
79527;BME280;68974;47.754;-3.364;2024-03-29T05:51:57;98523.25;;;8.93;80.73
79527;BME280;68974;47.754;-3.364;2024-03-29T05:54:22;98528.72;;;8.93;81.44
79527;BME280;68974;47.754;-3.364;2024-03-29T05:56:48;98524.53;;;8.87;82.38
79527;BME280;68974;47.754;-3.364;2024-03-29T05:59:14;98517.13;;;8.96;82.51
79527;BME280;68974;47.754;-3.364;2024-03-29T06:01:39;98514.88;;;8.98;83.40
79527;BME280;68974;47.754;-3.364;2024-03-29T06:04:04;98521.25;;;9.19;83.23
79527;BME280;68974;47.754;-3.364;2024-03-29T06:06:39;98527.41;;;9.16;83.79
79527;BME280;68974;47.754;-3.364;2024-03-29T06:09:04;98528.34;;;9.20;84.01
79527;BME280;68974;47.754;-3.364;2024-03-29T06:11:30;98527.53;;;9.20;84.39
79527;BME280;68974;47.754;-3.364;2024-03-29T06:13:56;98518.16;;;9.29;83.68
79527;BME280;68974;47.754;-3.364;2024-03-29T06:16:25;98540.09;;;9.38;83.66
79527;BME280;68974;47.754;-3.364;2024-03-29T06:19:10;98531.69;;;9.34;83.50
79527;BME280;68974;47.754;-3.364;2024-03-29T06:21:36;98530.06;;;9.42;83.33
79527;BME280;68974;47.754;-3.364;2024-03-29T06:24:09;98531.94;;;9.58;81.58
79527;BME280;68974;47.754;-3.364;2024-03-29T06:26:37;98533.09;;;9.57;80.79
79527;BME280;68974;47.754;-3.364;2024-03-29T06:29:03;98545.78;;;9.71;80.32
79527;BME280;68974;47.754;-3.364;2024-03-29T06:31:28;98557.19;;;9.81;80.21
79527;BME280;68974;47.754;-3.364;2024-03-29T06:33:54;98554.59;;;9.85;79.88
79527;BME280;68974;47.754;-3.364;2024-03-29T06:36:20;98558.59;;;9.87;80.13
79527;BME280;68974;47.754;-3.364;2024-03-29T06:38:45;98551.16;;;9.96;79.14
79527;BME280;68974;47.754;-3.364;2024-03-29T06:41:11;98553.28;;;9.91;78.83
79527;BME280;68974;47.754;-3.364;2024-03-29T06:43:40;98565.38;;;9.90;79.66
79527;BME280;68974;47.754;-3.364;2024-03-29T06:46:06;98551.53;;;9.78;81.46
79527;BME280;68974;47.754;-3.364;2024-03-29T06:48:31;98565.59;;;9.68;81.20
79527;BME280;68974;47.754;-3.364;2024-03-29T06:50:57;98549.81;;;9.65;82.08
79527;BME280;68974;47.754;-3.364;2024-03-29T06:53:24;98555.03;;;9.57;81.91
79527;BME280;68974;47.754;-3.364;2024-03-29T06:55:49;98568.25;;;9.55;83.25
79527;BME280;68974;47.754;-3.364;2024-03-29T06:58:15;98581.19;;;9.38;83.25
79527;BME280;68974;47.754;-3.364;2024-03-29T07:00:41;98565.25;;;9.31;84.93
79527;BME280;68974;47.754;-3.364;2024-03-29T07:03:07;98568.63;;;9.37;85.68
79527;BME280;68974;47.754;-3.364;2024-03-29T07:05:32;98566.84;;;9.32;86.12
79527;BME280;68974;47.754;-3.364;2024-03-29T07:07:58;98569.09;;;9.30;86.56
79527;BME280;68974;47.754;-3.364;2024-03-29T07:10:25;98568.47;;;9.25;86.87
79527;BME280;68974;47.754;-3.364;2024-03-29T07:12:51;98562.63;;;9.35;86.77
79527;BME280;68974;47.754;-3.364;2024-03-29T07:15:16;98569.59;;;9.32;86.92
79527;BME280;68974;47.754;-3.364;2024-03-29T07:17:42;98576.97;;;9.40;87.02
79527;BME280;68974;47.754;-3.364;2024-03-29T07:20:09;98571.50;;;9.40;87.16
79527;BME280;68974;47.754;-3.364;2024-03-29T07:22:35;98571.16;;;9.50;87.02
79527;BME280;68974;47.754;-3.364;2024-03-29T07:25:00;98581.41;;;9.71;86.33
79527;BME280;68974;47.754;-3.364;2024-03-29T07:27:26;98586.72;;;9.76;86.23
79527;BME280;68974;47.754;-3.364;2024-03-29T07:29:53;98597.50;;;9.81;85.81
79527;BME280;68974;47.754;-3.364;2024-03-29T07:32:19;98615.22;;;9.92;84.76
79527;BME280;68974;47.754;-3.364;2024-03-29T07:34:44;98627.69;;;9.81;83.30
79527;BME280;68974;47.754;-3.364;2024-03-29T07:37:09;98627.81;;;9.84;82.11
79527;BME280;68974;47.754;-3.364;2024-03-29T07:39:40;98631.38;;;9.85;81.74
79527;BME280;68974;47.754;-3.364;2024-03-29T07:42:06;98633.78;;;9.78;81.61
79527;BME280;68974;47.754;-3.364;2024-03-29T07:44:32;98633.94;;;9.90;80.11
79527;BME280;68974;47.754;-3.364;2024-03-29T07:46:57;98631.97;;;9.99;79.37
79527;BME280;68974;47.754;-3.364;2024-03-29T07:49:23;98637.56;;;10.11;79.17
79527;BME280;68974;47.754;-3.364;2024-03-29T07:51:48;98635.00;;;10.06;78.68
79527;BME280;68974;47.754;-3.364;2024-03-29T07:54:14;98647.56;;;10.07;80.17
79527;BME280;68974;47.754;-3.364;2024-03-29T07:56:39;98648.38;;;10.08;80.69
79527;BME280;68974;47.754;-3.364;2024-03-29T07:59:05;98659.28;;;10.33;80.89
79527;BME280;68974;47.754;-3.364;2024-03-29T08:01:30;98660.81;;;10.52;80.25
79527;BME280;68974;47.754;-3.364;2024-03-29T08:03:56;98673.22;;;10.58;79.25
79527;BME280;68974;47.754;-3.364;2024-03-29T08:06:22;98675.19;;;10.49;79.55
79527;BME280;68974;47.754;-3.364;2024-03-29T08:08:49;98667.34;;;10.38;79.07
79527;BME280;68974;47.754;-3.364;2024-03-29T08:11:16;98681.44;;;10.28;79.21
79527;BME280;68974;47.754;-3.364;2024-03-29T08:13:41;98680.00;;;10.22;79.56
79527;BME280;68974;47.754;-3.364;2024-03-29T08:16:07;98691.56;;;10.36;79.75
79527;BME280;68974;47.754;-3.364;2024-03-29T08:18:33;98681.16;;;10.51;78.81
79527;BME280;68974;47.754;-3.364;2024-03-29T08:21:01;98683.56;;;10.52;78.72
79527;BME280;68974;47.754;-3.364;2024-03-29T08:23:26;98685.13;;;10.32;79.82
79527;BME280;68974;47.754;-3.364;2024-03-29T08:25:52;98693.38;;;10.24;78.50
79527;BME280;68974;47.754;-3.364;2024-03-29T08:28:22;98695.97;;;10.12;79.82
79527;BME280;68974;47.754;-3.364;2024-03-29T08:30:58;98698.75;;;10.03;80.72
79527;BME280;68974;47.754;-3.364;2024-03-29T08:33:24;98708.13;;;9.93;82.08
79527;BME280;68974;47.754;-3.364;2024-03-29T08:35:49;98721.38;;;9.83;82.50
79527;BME280;68974;47.754;-3.364;2024-03-29T08:38:15;98736.06;;;9.78;82.73
79527;BME280;68974;47.754;-3.364;2024-03-29T08:40:41;98737.50;;;9.58;83.67
79527;BME280;68974;47.754;-3.364;2024-03-29T08:43:08;98753.63;;;9.34;84.36
79527;BME280;68974;47.754;-3.364;2024-03-29T08:45:35;98761.69;;;9.31;84.07
79527;BME280;68974;47.754;-3.364;2024-03-29T08:48:08;98752.81;;;9.17;84.20
79527;BME280;68974;47.754;-3.364;2024-03-29T08:50:35;98761.03;;;9.08;84.96
79527;BME280;68974;47.754;-3.364;2024-03-29T08:53:01;98758.91;;;9.05;85.82
79527;BME280;68974;47.754;-3.364;2024-03-29T08:55:28;98766.16;;;9.09;86.70
79527;BME280;68974;47.754;-3.364;2024-03-29T08:57:54;98752.97;;;9.20;86.74
79527;BME280;68974;47.754;-3.364;2024-03-29T09:00:19;98752.84;;;9.85;86.68
79527;BME280;68974;47.754;-3.364;2024-03-29T09:02:46;98758.81;;;10.51;84.37
79527;BME280;68974;47.754;-3.364;2024-03-29T09:05:11;98755.31;;;10.80;82.18
79527;BME280;68974;47.754;-3.364;2024-03-29T09:07:37;98750.78;;;10.84;80.89
79527;BME280;68974;47.754;-3.364;2024-03-29T09:10:04;98748.69;;;11.10;80.94
79527;BME280;68974;47.754;-3.364;2024-03-29T09:12:31;98766.31;;;11.80;78.64
79527;BME280;68974;47.754;-3.364;2024-03-29T09:14:56;98768.13;;;11.76;76.06
79527;BME280;68974;47.754;-3.364;2024-03-29T09:17:22;98747.69;;;12.31;76.69
79527;BME280;68974;47.754;-3.364;2024-03-29T09:19:50;98750.59;;;13.83;70.38
79527;BME280;68974;47.754;-3.364;2024-03-29T09:22:16;98753.22;;;14.95;63.81
79527;BME280;68974;47.754;-3.364;2024-03-29T09:24:42;98763.84;;;15.43;60.58
79527;BME280;68974;47.754;-3.364;2024-03-29T09:27:07;98767.28;;;14.74;61.25
79527;BME280;68974;47.754;-3.364;2024-03-29T09:29:33;98763.28;;;13.32;64.45
79527;BME280;68974;47.754;-3.364;2024-03-29T09:31:59;98774.16;;;12.92;65.66
79527;BME280;68974;47.754;-3.364;2024-03-29T09:34:27;98760.63;;;13.12;65.53
79527;BME280;68974;47.754;-3.364;2024-03-29T09:36:53;98768.91;;;13.12;66.52
79527;BME280;68974;47.754;-3.364;2024-03-29T09:39:18;98759.69;;;13.20;66.89
79527;BME280;68974;47.754;-3.364;2024-03-29T09:41:46;98747.03;;;13.83;65.92
79527;BME280;68974;47.754;-3.364;2024-03-29T09:44:12;98746.31;;;14.57;62.43
79527;BME280;68974;47.754;-3.364;2024-03-29T09:46:39;98759.06;;;15.09;60.34
79527;BME280;68974;47.754;-3.364;2024-03-29T09:49:06;98756.84;;;15.49;59.25
79527;BME280;68974;47.754;-3.364;2024-03-29T09:51:33;98763.34;;;15.06;60.96
79527;BME280;68974;47.754;-3.364;2024-03-29T09:53:59;98773.53;;;13.72;62.63
79527;BME280;68974;47.754;-3.364;2024-03-29T09:56:27;98778.06;;;12.91;66.83
79527;BME280;68974;47.754;-3.364;2024-03-29T09:58:53;98800.88;;;12.23;69.54
79527;BME280;68974;47.754;-3.364;2024-03-29T10:01:18;98802.47;;;11.91;70.68
79527;BME280;68974;47.754;-3.364;2024-03-29T10:03:51;98818.59;;;11.51;71.81
79527;BME280;68974;47.754;-3.364;2024-03-29T10:06:19;98812.44;;;11.24;72.78
79527;BME280;68974;47.754;-3.364;2024-03-29T10:08:47;98808.84;;;11.03;73.90
79527;BME280;68974;47.754;-3.364;2024-03-29T10:11:14;98819.53;;;10.96;75.67
79527;BME280;68974;47.754;-3.364;2024-03-29T10:13:45;98809.28;;;10.76;76.50
79527;BME280;68974;47.754;-3.364;2024-03-29T10:16:11;98816.53;;;10.80;76.30
79527;BME280;68974;47.754;-3.364;2024-03-29T10:18:40;98815.31;;;10.61;76.69
79527;BME280;68974;47.754;-3.364;2024-03-29T10:21:06;98808.69;;;10.62;76.73
79527;BME280;68974;47.754;-3.364;2024-03-29T10:23:34;98816.38;;;11.15;75.09
79527;BME280;68974;47.754;-3.364;2024-03-29T10:26:04;98813.19;;;12.82;71.60
79527;BME280;68974;47.754;-3.364;2024-03-29T10:28:33;98805.66;;;14.48;64.30
79527;BME280;68974;47.754;-3.364;2024-03-29T10:31:03;98802.91;;;15.42;60.16
79527;BME280;68974;47.754;-3.364;2024-03-29T10:33:30;98816.25;;;16.25;57.71
79527;BME280;68974;47.754;-3.364;2024-03-29T10:35:57;98818.13;;;16.82;56.00
79527;BME280;68974;47.754;-3.364;2024-03-29T10:38:24;98801.91;;;17.30;53.34
79527;BME280;68974;47.754;-3.364;2024-03-29T10:40:51;98805.16;;;17.36;52.29
79527;BME280;68974;47.754;-3.364;2024-03-29T10:43:19;98805.69;;;17.67;52.27
79527;BME280;68974;47.754;-3.364;2024-03-29T10:45:46;98808.84;;;17.96;50.05
79527;BME280;68974;47.754;-3.364;2024-03-29T10:48:11;98810.19;;;17.53;50.25
79527;BME280;68974;47.754;-3.364;2024-03-29T10:50:41;98797.53;;;18.11;51.24
79527;BME280;68974;47.754;-3.364;2024-03-29T10:53:07;98810.75;;;18.92;49.92
79527;BME280;68974;47.754;-3.364;2024-03-29T10:55:34;98804.53;;;17.98;49.39
79527;BME280;68974;47.754;-3.364;2024-03-29T10:58:00;98798.00;;;18.17;50.15
79527;BME280;68974;47.754;-3.364;2024-03-29T11:00:29;98795.41;;;18.68;50.52
79527;BME280;68974;47.754;-3.364;2024-03-29T11:03:18;98800.16;;;18.64;49.40
79527;BME280;68974;47.754;-3.364;2024-03-29T11:05:48;98810.00;;;18.25;50.36
79527;BME280;68974;47.754;-3.364;2024-03-29T11:08:20;98798.88;;;17.91;51.80
79527;BME280;68974;47.754;-3.364;2024-03-29T11:10:50;98804.31;;;17.58;50.64
79527;BME280;68974;47.754;-3.364;2024-03-29T11:16:02;98802.44;;;17.62;50.52
79527;BME280;68974;47.754;-3.364;2024-03-29T11:18:29;98811.91;;;17.87;49.02
79527;BME280;68974;47.754;-3.364;2024-03-29T11:20:56;98800.25;;;17.52;50.57
79527;BME280;68974;47.754;-3.364;2024-03-29T11:23:22;98791.25;;;18.18;49.73
79527;BME280;68974;47.754;-3.364;2024-03-29T11:25:50;98804.44;;;18.25;48.86
79527;BME280;68974;47.754;-3.364;2024-03-29T11:28:26;98798.97;;;19.06;47.37
79527;BME280;68974;47.754;-3.364;2024-03-29T11:30:57;98811.03;;;19.24;49.10
79527;BME280;68974;47.754;-3.364;2024-03-29T11:33:35;98792.44;;;18.50;48.75
79527;BME280;68974;47.754;-3.364;2024-03-29T11:38:37;98823.00;;;18.84;47.04
79527;BME280;68974;47.754;-3.364;2024-03-29T11:41:09;98803.03;;;19.15;46.85
79527;BME280;68974;47.754;-3.364;2024-03-29T11:43:35;98816.00;;;18.60;48.32
79527;BME280;68974;47.754;-3.364;2024-03-29T11:46:05;98813.38;;;19.18;47.65
79527;BME280;68974;47.754;-3.364;2024-03-29T11:48:30;98830.47;;;18.43;49.35
79527;BME280;68974;47.754;-3.364;2024-03-29T11:50:57;98823.66;;;18.37;49.09
79527;BME280;68974;47.754;-3.364;2024-03-29T11:53:23;98819.97;;;18.59;48.76
79527;BME280;68974;47.754;-3.364;2024-03-29T11:55:49;98826.28;;;18.93;48.67
79527;BME280;68974;47.754;-3.364;2024-03-29T11:58:25;98824.63;;;19.32;47.12
79527;BME280;68974;47.754;-3.364;2024-03-29T12:00:52;98824.78;;;19.50;45.61
79527;BME280;68974;47.754;-3.364;2024-03-29T12:03:19;98822.28;;;19.93;45.37
79527;BME280;68974;47.754;-3.364;2024-03-29T12:05:46;98818.94;;;19.18;44.76
79527;BME280;68974;47.754;-3.364;2024-03-29T12:08:12;98833.09;;;18.62;46.10
79527;BME280;68974;47.754;-3.364;2024-03-29T12:10:39;98843.53;;;19.09;45.62
79527;BME280;68974;47.754;-3.364;2024-03-29T12:13:06;98828.34;;;20.09;43.44
79527;BME280;68974;47.754;-3.364;2024-03-29T12:15:32;98832.56;;;20.61;41.16
79527;BME280;68974;47.754;-3.364;2024-03-29T12:17:59;98828.34;;;20.09;42.26
79527;BME280;68974;47.754;-3.364;2024-03-29T12:20:24;98840.53;;;20.55;42.04
79527;BME280;68974;47.754;-3.364;2024-03-29T12:22:50;98850.97;;;20.83;41.14
79527;BME280;68974;47.754;-3.364;2024-03-29T12:25:16;98839.97;;;20.28;41.73
79527;BME280;68974;47.754;-3.364;2024-03-29T12:27:43;98841.44;;;19.98;42.73
79527;BME280;68974;47.754;-3.364;2024-03-29T12:30:10;98844.69;;;18.68;45.05
79527;BME280;68974;47.754;-3.364;2024-03-29T12:32:36;98840.56;;;18.91;44.09
79527;BME280;68974;47.754;-3.364;2024-03-29T12:35:09;98836.50;;;19.26;44.59
79527;BME280;68974;47.754;-3.364;2024-03-29T12:37:35;98817.81;;;19.74;44.38
79527;BME280;68974;47.754;-3.364;2024-03-29T12:40:00;98846.72;;;19.11;43.91
79527;BME280;68974;47.754;-3.364;2024-03-29T12:42:30;98846.56;;;17.70;47.20
79527;BME280;68974;47.754;-3.364;2024-03-29T12:44:56;98862.59;;;17.31;49.70
79527;BME280;68974;47.754;-3.364;2024-03-29T12:47:22;98844.59;;;17.71;49.14
79527;BME280;68974;47.754;-3.364;2024-03-29T12:49:48;98861.50;;;18.78;46.12
79527;BME280;68974;47.754;-3.364;2024-03-29T12:52:13;98860.78;;;18.85;45.45
79527;BME280;68974;47.754;-3.364;2024-03-29T12:54:39;98844.81;;;19.66;46.47
79527;BME280;68974;47.754;-3.364;2024-03-29T12:57:05;98849.53;;;19.15;45.54